Time;durP1;ratioP1;P1;durP2;ratioP2;P2;SDS_P1;SDS_P2;PMS_P1;PMS_P2;Temp;Humidity;BMP_temperature;BMP_pressure;BME280_temperature;BME280_humidity;BME280_pressure;Samples;Min_cycle;Max_cycle;Signal;HPM_P1;HPM_P2
2022/04/07 00:04:41;;;;;;;4.43;3.70;;;;;;;;;;10412087;27;20071;-63
2022/04/07 00:09:40;;;;;;;6.45;4.13;;;;;;;;;;10410778;27;20071;-63
2022/04/07 00:14:38;;;;;;;4.50;3.83;;;;;;;;;;10412059;27;20078;-63
2022/04/07 00:19:37;;;;;;;4.60;4.10;;;;;;;;;;10411327;27;20067;-63
2022/04/07 00:24:36;;;;;;;6.63;4.40;;;;;;;;;;10411378;27;20083;-63
2022/04/07 00:29:35;;;;;;;4.68;4.13;;;;;;;;;;10411861;27;20210;-63
2022/04/07 00:34:33;;;;;;;9.07;4.65;;;;;;;;;;10410834;27;20075;-63
2022/04/07 00:39:31;;;;;;;4.80;4.07;;;;;;;;;;10410553;27;20500;-63
2022/04/07 00:44:31;;;;;;;4.10;3.78;;;;;;;;;;10400201;27;20040;-63
2022/04/07 00:49:29;;;;;;;6.28;4.43;;;;;;;;;;10410443;27;20059;-63
2022/04/07 00:54:28;;;;;;;4.60;4.05;;;;;;;;;;10409179;27;20090;-62
2022/04/07 00:59:26;;;;;;;5.03;3.97;;;;;;;;;;10399553;27;20417;-62
2022/04/07 01:04:25;;;;;;;6.53;3.90;;;;;;;;;;10409117;27;20044;-63
2022/04/07 01:09:24;;;;;;;4.32;3.92;;;;;;;;;;10409633;27;20492;-63
2022/04/07 01:14:22;;;;;;;5.00;4.13;;;;;;;;;;10409136;27;20527;-64
2022/04/07 01:19:20;;;;;;;6.50;4.50;;;;;;;;;;10408658;27;20042;-63
2022/04/07 01:24:20;;;;;;;5.07;4.13;;;;;;;;;;10409044;27;20047;-63
2022/04/07 01:29:25;;;;;;;4.45;4.05;;;;;;;;;;10409006;27;20369;-64
2022/04/07 01:34:23;;;;;;;;;;;;;;;;;;10409395;27;20075;-62
2022/04/07 01:39:26;;;;;;;4.57;4.03;;;;;;;;;;10407881;27;19920;-63
2022/04/07 01:44:26;;;;;;;4.63;4.22;;;;;;;;;;10408235;27;20420;-63
2022/04/07 01:49:25;;;;;;;5.38;4.68;;;;;;;;;;10396618;28;20337;-63
2022/04/07 01:54:23;;;;;;;6.50;4.90;;;;;;;;;;10396683;28;20504;-62
2022/04/07 01:59:22;;;;;;;5.10;4.60;;;;;;;;;;10395722;28;20075;-62
2022/04/07 02:04:23;;;;;;;7.97;5.35;;;;;;;;;;10407804;27;20055;-63
2022/04/07 02:09:21;;;;;;;7.03;4.63;;;;;;;;;;10407040;27;20043;-63
2022/04/07 02:14:19;;;;;;;6.57;5.30;;;;;;;;;;10407227;27;20082;-63
2022/04/07 02:19:17;;;;;;;5.97;5.20;;;;;;;;;;10405709;27;20098;-62
2022/04/07 02:24:17;;;;;;;6.05;5.07;;;;;;;;;;10406547;27;20039;-63
2022/04/07 02:29:15;;;;;;;6.40;5.75;;;;;;;;;;10405591;27;20075;-63
2022/04/07 02:34:13;;;;;;;9.90;5.07;;;;;;;;;;10395616;28;20050;-63
2022/04/07 02:39:11;;;;;;;6.00;4.65;;;;;;;;;;10395575;28;20071;-63
2022/04/07 02:44:11;;;;;;;12.38;7.15;;;;;;;;;;10394361;28;20531;-64
2022/04/07 02:49:09;;;;;;;5.78;4.90;;;;;;;;;;10405539;27;20071;-63
2022/04/07 02:54:08;;;;;;;5.75;4.85;;;;;;;;;;10405103;28;20413;-62
2022/04/07 02:59:06;;;;;;;8.68;6.55;;;;;;;;;;10406363;28;20039;-63
2022/04/07 03:04:05;;;;;;;10.23;5.53;;;;;;;;;;10394727;28;20046;-62
2022/04/07 03:09:04;;;;;;;8.05;5.45;;;;;;;;;;10395033;28;20075;-63
2022/04/07 03:14:02;;;;;;;6.25;5.07;;;;;;;;;;10406638;28;20527;-63
2022/04/07 03:19:00;;;;;;;8.27;5.75;;;;;;;;;;10405084;28;20075;-64
2022/04/07 03:24:00;;;;;;;7.75;6.03;;;;;;;;;;10406199;28;20432;-64
2022/04/07 03:28:58;;;;;;;7.10;5.25;;;;;;;;;;10406150;28;20071;-64
2022/04/07 03:33:56;;;;;;;7.88;5.05;;;;;;;;;;10407411;27;20082;-63
2022/04/07 03:38:55;;;;;;;7.30;5.10;;;;;;;;;;10414048;27;20078;-63
2022/04/07 03:43:54;;;;;;;7.63;5.20;;;;;;;;;;10413138;27;20072;-64
2022/04/07 03:48:52;;;;;;;8.35;5.60;;;;;;;;;;10413609;27;20087;-64
2022/04/07 03:53:51;;;;;;;7.32;6.63;;;;;;;;;;10412767;27;20075;-63
2022/04/07 03:58:49;;;;;;;8.00;7.20;;;;;;;;;;10410932;27;20083;-63
2022/04/07 04:03:49;;;;;;;9.68;6.80;;;;;;;;;;10412365;27;20071;-63
2022/04/07 04:08:47;;;;;;;8.20;6.75;;;;;;;;;;10410661;27;20106;-62
2022/04/07 04:13:46;;;;;;;11.60;6.38;;;;;;;;;;10411742;27;20063;-63
2022/04/07 04:18:45;;;;;;;7.90;6.75;;;;;;;;;;10411633;27;20075;-64
2022/04/07 04:23:44;;;;;;;9.88;8.00;;;;;;;;;;10412237;27;20047;-63
2022/04/07 04:28:42;;;;;;;8.15;6.57;;;;;;;;;;10411240;27;20086;-63
2022/04/07 04:33:41;;;;;;;8.98;5.78;;;;;;;;;;10405415;27;20071;-63
2022/04/07 04:38:39;;;;;;;7.88;6.32;;;;;;;;;;10410781;27;20071;-62
2022/04/07 04:43:39;;;;;;;7.45;6.55;;;;;;;;;;10410108;27;20079;-63
2022/04/07 04:48:38;;;;;;;9.70;7.32;;;;;;;;;;10410935;27;20070;-63
2022/04/07 04:53:36;;;;;;;10.40;7.28;;;;;;;;;;10378386;27;20120;-61
2022/04/07 04:58:36;;;;;;;15.38;7.57;;;;;;;;;;10377731;27;20072;-62
2022/04/07 05:03:35;;;;;;;11.20;6.38;;;;;;;;;;10396283;27;20086;-62
2022/04/07 05:08:33;;;;;;;8.30;7.07;;;;;;;;;;10397175;27;20069;-62
2022/04/07 05:13:32;;;;;;;7.90;6.40;;;;;;;;;;10400777;27;20052;-62
2022/04/07 05:18:30;;;;;;;9.75;7.00;;;;;;;;;;10396936;27;20071;-62
2022/04/07 05:23:30;;;;;;;7.40;6.22;;;;;;;;;;10399396;27;20508;-62
2022/04/07 05:28:29;;;;;;;9.55;6.05;;;;;;;;;;10399954;27;20504;-63
2022/04/07 05:33:27;;;;;;;6.15;5.45;;;;;;;;;;10398782;27;20075;-62
2022/04/07 05:38:25;;;;;;;7.45;5.70;;;;;;;;;;10396538;27;20483;-63
2022/04/07 05:43:25;;;;;;;7.28;5.85;;;;;;;;;;10408845;27;20078;-63
2022/04/07 05:48:23;;;;;;;6.68;5.97;;;;;;;;;;10406779;27;20511;-63
2022/04/07 05:53:23;;;;;;;11.48;6.03;;;;;;;;;;10397215;27;20091;-63
2022/04/07 05:58:22;;;;;;;12.07;5.60;;;;;;;;;;10399734;27;20515;-63
2022/04/07 06:03:21;;;;;;;7.03;5.80;;;;;;;;;;10406729;27;20070;-63
2022/04/07 06:08:20;;;;;;;6.63;5.18;;;;;;;;;;10408057;27;20078;-63
2022/04/07 06:13:18;;;;;;;10.07;5.22;;;;;;;;;;10396336;28;20046;-63
2022/04/07 06:18:17;;;;;;;8.38;5.53;;;;;;;;;;10395817;28;20075;-63
2022/04/07 06:23:17;;;;;;;8.32;4.88;;;;;;;;;;10394728;28;20051;-62
2022/04/07 06:28:16;;;;;;;7.88;6.57;;;;;;;;;;10397373;27;20094;-62
2022/04/07 06:33:14;;;;;;;8.77;5.60;;;;;;;;;;10390594;27;20467;-62
2022/04/07 06:38:12;;;;;;;10.38;5.38;;;;;;;;;;10394636;27;20083;-63
2022/04/07 06:43:12;;;;;;;5.53;3.90;;;;;;;;;;10394827;27;20074;-64
2022/04/07 06:48:12;;;;;;;4.10;3.70;;;;;;;;;;10392642;28;20453;-64
2022/04/07 06:53:11;;;;;;;6.20;4.00;;;;;;;;;;10394532;28;20055;-63
2022/04/07 06:58:10;;;;;;;7.55;4.20;;;;;;;;;;10394446;28;20059;-63
2022/04/07 07:03:11;;;;;;;7.18;4.60;;;;;;;;;;10392732;28;20105;-62
2022/04/07 07:08:15;;;;;;;6.00;4.07;;;;;;;;;;10398181;27;20491;-64
2022/04/07 07:13:16;;;;;;;6.78;3.90;;;;;;;;;;10402408;27;20028;-63
2022/04/07 07:18:23;;;;;;;6.30;4.03;;;;;;;;;;10401674;27;20070;-62
2022/04/07 07:23:21;;;;;;;7.93;3.70;;;;;;;;;;10403217;27;20115;-62
2022/04/07 07:28:20;;;;;;;5.63;4.22;;;;;;;;;;10399243;28;20070;-63
2022/04/07 07:33:18;;;;;;;8.93;3.65;;;;;;;;;;10401033;28;20062;-62
2022/04/07 07:38:17;;;;;;;7.80;4.13;;;;;;;;;;10400534;27;20094;-62
2022/04/07 07:43:16;;;;;;;9.32;4.07;;;;;;;;;;10412747;27;20063;-63
2022/04/07 07:48:14;;;;;;;12.25;5.10;;;;;;;;;;10404943;27;20078;-62
2022/04/07 07:53:16;;;;;;;5.53;3.50;;;;;;;;;;10404488;27;20094;-61
2022/04/07 07:58:15;;;;;;;7.40;4.50;;;;;;;;;;10411703;27;20504;-62
2022/04/07 08:03:14;;;;;;;5.25;4.30;;;;;;;;;;10403040;27;20077;-62
2022/04/07 08:08:12;;;;;;;10.40;4.43;;;;;;;;;;10399359;27;20100;-62
2022/04/07 08:13:11;;;;;;;7.60;3.85;;;;;;;;;;10430978;27;20321;-63
2022/04/07 08:18:10;;;;;;;4.68;3.60;;;;;;;;;;10400417;28;20078;-63
2022/04/07 08:23:09;;;;;;;7.75;3.30;;;;;;;;;;10399906;28;20467;-62
2022/04/07 08:28:07;;;;;;;7.25;4.50;;;;;;;;;;10397396;28;20070;-62
2022/04/07 08:33:06;;;;;;;6.53;3.55;;;;;;;;;;10407869;27;20464;-63
2022/04/07 08:38:05;;;;;;;6.78;3.42;;;;;;;;;;10407888;27;20070;-62
2022/04/07 08:43:03;;;;;;;8.35;3.53;;;;;;;;;;10410393;27;20070;-62
2022/04/07 08:48:03;;;;;;;5.32;3.42;;;;;;;;;;10411078;27;20527;-62
2022/04/07 08:53:02;;;;;;;8.13;4.07;;;;;;;;;;10411436;27;20077;-63
2022/04/07 08:58:02;;;;;;;5.35;3.30;;;;;;;;;;10410316;27;20077;-62
2022/04/07 09:03:00;;;;;;;5.72;3.50;;;;;;;;;;10410024;27;20555;-62
2022/04/07 09:08:04;;;;;;;5.50;3.25;;;;;;;;;;10410427;27;20066;-63
2022/04/07 09:13:05;;;;;;;6.80;3.25;;;;;;;;;;10409983;27;20070;-62
2022/04/07 09:18:05;;;;;;;6.00;3.60;;;;;;;;;;10409599;27;20523;-62
2022/04/07 09:23:05;;;;;;;10.32;4.63;;;;;;;;;;10409241;27;20486;-63
2022/04/07 09:28:11;;;;;;;12.90;5.20;;;;;;;;;;10398656;28;20052;-63
2022/04/07 09:33:20;;;;;;;27.67;12.10;;;;;;;;;;10397283;28;20040;-63
2022/04/07 09:38:24;;;;;;;29.92;14.02;;;;;;;;;;10398212;28;20468;-63
2022/04/07 09:43:24;;;;;;;19.55;10.55;;;;;;;;;;10397909;28;20071;-63
2022/04/07 09:48:24;;;;;;;17.35;5.32;;;;;;;;;;10378835;28;20535;-62
2022/04/07 09:53:29;;;;;;;12.20;4.63;;;;;;;;;;10397241;28;20044;-62
2022/04/07 09:58:29;;;;;;;13.60;7.70;;;;;;;;;;10397218;28;20185;-63
2022/04/07 10:03:28;;;;;;;11.05;5.15;;;;;;;;;;10408913;27;20480;-62
2022/04/07 10:08:27;;;;;;;11.05;4.60;;;;;;;;;;10407848;27;20028;-62
2022/04/07 10:13:26;;;;;;;15.15;6.05;;;;;;;;;;10407727;27;20063;-62
2022/04/07 10:18:28;;;;;;;11.73;5.55;;;;;;;;;;10407198;27;20072;-62
2022/04/07 10:23:32;;;;;;;18.98;8.00;;;;;;;;;;10406548;27;20087;-62
2022/04/07 10:28:30;;;;;;;12.77;4.83;;;;;;;;;;10377861;28;20036;-63
2022/04/07 10:33:34;;;;;;;14.80;6.63;;;;;;;;;;10395715;28;20480;-62
2022/04/07 10:38:36;;;;;;;19.13;6.10;;;;;;;;;;10395816;28;20093;-63
2022/04/07 10:43:38;;;;;;;7.05;4.50;;;;;;;;;;10395313;28;20036;-63
2022/04/07 10:48:38;;;;;;;11.13;5.25;;;;;;;;;;10406447;27;20063;-63
2022/04/07 10:53:38;;;;;;;6.57;4.30;;;;;;;;;;10406268;27;20072;-62
2022/04/07 10:58:45;;;;;;;7.28;3.92;;;;;;;;;;10406530;28;20071;-62
2022/04/07 11:09:14;;;;;;;11.70;6.20;;;;;;;;;;10335420;27;20397;-62
2022/04/07 11:14:12;;;;;;;6.97;4.60;;;;;;;;;;10330756;28;20537;-63
2022/04/07 11:19:16;;;;;;;10.25;5.88;;;;;;;;;;10317873;28;20037;-63
2022/04/07 11:24:24;;;;;;;31.42;16.80;;;;;;;;;;10318347;28;20045;-62
2022/04/07 11:29:32;;;;;;;26.63;15.25;;;;;;;;;;10317815;28;20060;-61
2022/04/07 11:34:54;;;;;;;21.17;11.95;;;;;;;;;;10306436;28;20406;-62
2022/04/07 11:39:54;;;;;;;27.88;15.70;;;;;;;;;;10306748;28;20049;-62
2022/04/07 11:44:57;;;;;;;22.95;12.70;;;;;;;;;;10306231;28;20081;-63
2022/04/07 11:49:55;;;;;;;56.78;38.53;;;;;;;;;;10316869;28;20155;-63
2022/04/07 11:54:55;;;;;;;14.82;9.80;;;;;;;;;;10316803;28;20045;-63
2022/04/07 11:59:57;;;;;;;17.10;8.82;;;;;;;;;;10306200;28;20045;-63
2022/04/07 12:04:59;;;;;;;15.07;8.38;;;;;;;;;;10305244;28;20155;-63
2022/04/07 12:10:08;;;;;;;25.02;15.20;;;;;;;;;;10305569;28;20099;-63
2022/04/07 12:15:10;;;;;;;19.88;10.98;;;;;;;;;;10316276;28;20068;-63
2022/04/07 12:20:09;;;;;;;24.33;11.73;;;;;;;;;;10290223;28;20041;-63
2022/04/07 12:25:09;;;;;;;16.90;10.52;;;;;;;;;;10288427;28;20084;-63
2022/04/07 12:30:11;;;;;;;34.38;23.98;;;;;;;;;;10288848;28;20048;-63
2022/04/07 12:35:09;;;;;;;23.30;16.33;;;;;;;;;;10288759;28;20055;-63
2022/04/07 12:40:26;;;;;;;14.18;7.57;;;;;;;;;;10288254;28;20080;-63
2022/04/07 12:45:26;;;;;;;12.10;6.47;;;;;;;;;;10287883;28;20153;-63
2022/04/07 12:50:27;;;;;;;13.95;5.97;;;;;;;;;;10277067;28;20037;-63
2022/04/07 12:55:35;;;;;;;13.85;6.70;;;;;;;;;;10276850;28;20073;-63
2022/04/07 13:00:36;;;;;;;21.70;12.50;;;;;;;;;;10287827;28;20399;-63
2022/04/07 13:05:38;;;;;;;22.60;11.45;;;;;;;;;;10286366;28;20080;-62
2022/04/07 13:10:41;;;;;;;22.90;13.02;;;;;;;;;;10287315;28;20068;-62
2022/04/07 13:15:40;;;;;;;13.90;11.52;;;;;;;;;;10286480;28;20524;-63
2022/04/07 13:20:39;;;;;;;20.27;11.45;;;;;;;;;;10276042;28;20045;-63
2022/04/07 13:25:37;;;;;;;17.27;10.23;;;;;;;;;;10275588;28;20081;-62
2022/04/07 13:30:35;;;;;;;21.77;13.95;;;;;;;;;;10285065;28;20096;-63
2022/04/07 13:35:35;;;;;;;27.05;20.05;;;;;;;;;;10285796;28;20068;-63
2022/04/07 13:40:33;;;;;;;30.00;18.50;;;;;;;;;;10285509;28;20351;-63
2022/04/07 13:45:31;;;;;;;24.08;20.17;;;;;;;;;;10267163;28;20079;-63
2022/04/07 13:50:31;;;;;;;27.58;18.60;;;;;;;;;;10279784;28;20509;-63
2022/04/07 13:55:32;;;;;;;17.65;14.20;;;;;;;;;;10276688;28;20079;-63
2022/04/07 14:00:31;;;;;;;28.48;21.23;;;;;;;;;;10275849;28;20072;-63
2022/04/07 14:05:29;;;;;;;23.60;17.63;;;;;;;;;;10278709;28;20459;-63
2022/04/07 14:10:27;;;;;;;58.97;39.95;;;;;;;;;;10286708;28;20485;-63
2022/04/07 14:15:27;;;;;;;59.90;33.60;;;;;;;;;;10267418;28;20084;-63
2022/04/07 14:20:26;;;;;;;17.48;13.65;;;;;;;;;;10276671;28;20069;-63
2022/04/07 14:25:24;;;;;;;19.00;14.70;;;;;;;;;;10269795;28;20467;-63
2022/04/07 14:30:22;;;;;;;39.40;26.90;;;;;;;;;;10279024;28;20065;-63
2022/04/07 14:35:22;;;;;;;32.72;20.73;;;;;;;;;;10261858;28;20080;-63
2022/04/07 14:40:20;;;;;;;24.75;20.05;;;;;;;;;;10266878;28;20095;-63
2022/04/07 14:45:19;;;;;;;16.95;13.25;;;;;;;;;;10268571;28;20065;-63
2022/04/07 14:50:17;;;;;;;34.17;22.90;;;;;;;;;;10269511;28;20097;-63
2022/04/07 14:55:17;;;;;;;43.50;29.08;;;;;;;;;;10269473;28;20069;-63
2022/04/07 15:00:15;;;;;;;51.33;29.83;;;;;;;;;;10268713;28;20067;-63
2022/04/07 15:05:14;;;;;;;51.88;33.88;;;;;;;;;;10266384;28;20081;-63
2022/04/07 15:10:12;;;;;;;31.25;23.88;;;;;;;;;;10263734;28;20489;-63
2022/04/07 15:15:12;;;;;;;61.33;40.35;;;;;;;;;;10269375;28;20081;-63
2022/04/07 15:20:11;;;;;;;57.20;36.70;;;;;;;;;;10264456;28;20068;-63
2022/04/07 15:25:10;;;;;;;72.70;46.55;;;;;;;;;;10267570;28;20076;-63
2022/04/07 15:30:10;;;;;;;60.90;44.25;;;;;;;;;;10267938;28;20077;-63
2022/04/07 15:35:10;;;;;;;49.15;41.25;;;;;;;;;;10268473;28;20068;-63
2022/04/07 15:40:09;;;;;;;56.80;45.35;;;;;;;;;;10264062;28;20076;-63
2022/04/07 15:45:07;;;;;;;47.88;40.15;;;;;;;;;;10270374;28;20068;-63
2022/04/07 15:50:07;;;;;;;45.72;39.03;;;;;;;;;;10272574;28;20076;-63
2022/04/07 15:55:07;;;;;;;43.55;36.97;;;;;;;;;;10278986;28;20076;-63
2022/04/07 16:00:06;;;;;;;31.77;28.50;;;;;;;;;;10271789;28;20073;-64
2022/04/07 16:05:05;;;;;;;44.75;33.88;;;;;;;;;;10274745;28;20084;-63
2022/04/07 16:10:03;;;;;;;50.10;37.25;;;;;;;;;;10276829;28;20357;-63
2022/04/07 16:15:04;;;;;;;43.05;32.03;;;;;;;;;;10287946;28;20087;-63
2022/04/07 16:20:03;;;;;;;39.10;30.77;;;;;;;;;;10268698;28;20072;-62
2022/04/07 16:25:02;;;;;;;69.35;45.72;;;;;;;;;;10271095;28;20065;-63
2022/04/07 16:30:00;;;;;;;70.65;51.42;;;;;;;;;;10271946;28;20087;-64
2022/04/07 16:35:00;;;;;;;50.50;37.55;;;;;;;;;;10273684;28;20087;-63
2022/04/07 16:39:58;;;;;;;29.83;24.83;;;;;;;;;;10283183;28;20064;-63
2022/04/07 16:44:56;;;;;;;28.35;23.02;;;;;;;;;;10284817;28;20079;-63
2022/04/07 16:49:55;;;;;;;33.00;26.20;;;;;;;;;;10287426;28;20099;-64
2022/04/07 16:54:54;;;;;;;28.60;22.10;;;;;;;;;;10276912;28;20084;-64
2022/04/07 16:59:53;;;;;;;38.75;30.25;;;;;;;;;;10276900;28;20080;-64
2022/04/07 17:04:51;;;;;;;25.13;22.42;;;;;;;;;;10273849;28;20073;-63
2022/04/07 17:09:50;;;;;;;30.42;26.75;;;;;;;;;;10268546;28;20076;-62
2022/04/07 17:14:50;;;;;;;36.47;28.00;;;;;;;;;;10269494;28;20072;-63
2022/04/07 17:19:50;;;;;;;33.03;25.33;;;;;;;;;;10269476;28;20071;-63
2022/04/07 17:24:48;;;;;;;29.05;23.17;;;;;;;;;;10275266;28;20061;-64
2022/04/07 17:29:46;;;;;;;25.23;22.25;;;;;;;;;;10277273;28;20069;-63
2022/04/07 17:34:46;;;;;;;23.83;19.85;;;;;;;;;;10265971;28;20482;-64
2022/04/07 17:39:44;;;;;;;24.52;20.58;;;;;;;;;;10267330;28;20075;-63
2022/04/07 17:44:43;;;;;;;30.10;25.63;;;;;;;;;;10273488;28;20468;-63
2022/04/07 17:49:49;;;;;;;41.77;32.77;;;;;;;;;;10272633;28;20075;-63
2022/04/07 17:54:47;;;;;;;24.65;22.15;;;;;;;;;;10269185;28;20069;-63
2022/04/07 17:59:46;;;;;;;31.90;26.35;;;;;;;;;;10265988;28;20075;-63
2022/04/07 18:04:48;;;;;;;26.23;23.60;;;;;;;;;;10294793;28;20052;-63
2022/04/07 18:09:46;;;;;;;31.83;28.45;;;;;;;;;;10291074;28;20073;-63
2022/04/07 18:14:44;;;;;;;30.02;23.92;;;;;;;;;;10270151;28;20099;-62
2022/04/07 18:19:43;;;;;;;25.80;23.23;;;;;;;;;;10280997;28;20060;-62
2022/04/07 18:24:45;;;;;;;28.10;24.15;;;;;;;;;;10276117;28;20072;-62
2022/04/07 18:29:43;;;;;;;26.20;22.92;;;;;;;;;;10272735;28;20072;-62
2022/04/07 18:34:41;;;;;;;24.65;22.20;;;;;;;;;;10267420;28;20071;-63
2022/04/07 18:39:46;;;;;;;24.17;21.60;;;;;;;;;;10270289;28;20485;-62
2022/04/07 18:44:44;;;;;;;27.35;23.25;;;;;;;;;;10272062;28;20075;-62
2022/04/07 18:49:42;;;;;;;27.77;24.98;;;;;;;;;;10262863;28;20375;-62
2022/04/07 18:54:41;;;;;;;28.02;25.02;;;;;;;;;;10274630;28;20076;-63
2022/04/07 18:59:41;;;;;;;28.35;25.50;;;;;;;;;;10282770;28;20076;-63
2022/04/07 19:04:39;;;;;;;25.58;22.88;;;;;;;;;;10282584;28;20075;-64
2022/04/07 19:09:38;;;;;;;29.42;26.38;;;;;;;;;;10277524;28;20093;-62
2022/04/07 19:14:36;;;;;;;31.90;28.40;;;;;;;;;;10262720;28;20080;-62
2022/04/07 19:19:36;;;;;;;27.88;24.15;;;;;;;;;;10267158;28;20484;-63
2022/04/07 19:24:35;;;;;;;28.95;26.02;;;;;;;;;;10274515;28;20072;-61
2022/04/07 19:29:33;;;;;;;28.20;25.45;;;;;;;;;;10274990;28;20465;-62
2022/04/07 19:34:31;;;;;;;28.85;25.88;;;;;;;;;;10274203;28;20060;-61
2022/04/07 19:39:31;;;;;;;29.55;26.58;;;;;;;;;;10269471;28;20065;-61
2022/04/07 19:44:29;;;;;;;31.45;28.35;;;;;;;;;;10278142;28;20080;-62
2022/04/07 19:49:27;;;;;;;29.00;26.10;;;;;;;;;;10273787;28;20072;-64
2022/04/07 19:54:25;;;;;;;30.33;26.67;;;;;;;;;;10276456;28;20510;-63
2022/04/07 19:59:25;;;;;;;35.13;30.40;;;;;;;;;;10289375;28;20077;-63
2022/04/07 20:04:24;;;;;;;30.52;27.35;;;;;;;;;;10278691;28;20106;-61
2022/04/07 20:09:22;;;;;;;30.17;26.58;;;;;;;;;;10278535;28;20065;-61
2022/04/07 20:14:21;;;;;;;45.17;35.15;;;;;;;;;;10279866;28;20075;-62
2022/04/07 20:19:23;;;;;;;33.85;29.10;;;;;;;;;;10271364;28;20080;-62
2022/04/07 20:24:21;;;;;;;30.95;26.33;;;;;;;;;;10277623;28;20076;-62
2022/04/07 20:29:19;;;;;;;25.95;23.30;;;;;;;;;;10293208;28;20084;-62
2022/04/07 20:34:18;;;;;;;24.77;22.17;;;;;;;;;;10302606;28;20075;-62
2022/04/07 20:39:17;;;;;;;25.92;23.27;;;;;;;;;;10298169;28;20549;-63
2022/04/07 20:44:16;;;;;;;25.10;22.52;;;;;;;;;;10288295;28;20072;-63
2022/04/07 20:49:14;;;;;;;25.92;22.77;;;;;;;;;;10287932;28;20080;-63
2022/04/07 20:54:12;;;;;;;23.13;20.80;;;;;;;;;;10286883;28;20083;-61
2022/04/07 20:59:12;;;;;;;24.30;21.38;;;;;;;;;;10287928;28;20420;-62
2022/04/07 21:04:10;;;;;;;23.23;20.95;;;;;;;;;;10287158;28;20465;-63
2022/04/07 21:09:08;;;;;;;28.65;25.50;;;;;;;;;;10286794;28;20076;-64
2022/04/07 21:14:06;;;;;;;27.15;24.40;;;;;;;;;;10286889;28;20045;-63
2022/04/07 21:19:07;;;;;;;25.35;22.85;;;;;;;;;;10286781;28;20528;-64
2022/04/07 21:24:07;;;;;;;25.50;22.90;;;;;;;;;;10286715;28;20053;-64
2022/04/07 21:29:05;;;;;;;23.25;20.75;;;;;;;;;;10282534;28;20108;-63
2022/04/07 21:34:04;;;;;;;25.25;22.63;;;;;;;;;;10257195;28;20080;-63
2022/04/07 21:39:03;;;;;;;24.20;21.70;;;;;;;;;;10273226;28;20457;-63
2022/04/07 21:44:01;;;;;;;24.58;22.05;;;;;;;;;;10274250;28;20072;-63
2022/04/07 21:49:00;;;;;;;24.92;22.25;;;;;;;;;;10283706;28;20080;-62
2022/04/07 21:53:58;;;;;;;24.85;22.27;;;;;;;;;;10286071;28;20045;-62
2022/04/07 21:58:59;;;;;;;24.55;21.95;;;;;;;;;;10286004;28;20080;-63
2022/04/07 22:03:57;;;;;;;44.13;22.42;;;;;;;;;;10284903;28;20064;-63
2022/04/07 22:08:56;;;;;;;28.02;23.08;;;;;;;;;;10273834;28;20544;-62
2022/04/07 22:13:54;;;;;;;23.02;20.65;;;;;;;;;;10274989;28;20485;-62
2022/04/07 22:18:54;;;;;;;22.77;18.80;;;;;;;;;;10272491;28;20073;-62
2022/04/07 22:23:52;;;;;;;22.83;20.38;;;;;;;;;;10285088;28;20088;-62
2022/04/07 22:28:50;;;;;;;22.67;19.88;;;;;;;;;;10284849;28;20076;-62
2022/04/07 22:33:48;;;;;;;21.33;19.08;;;;;;;;;;10283525;28;20060;-63
2022/04/07 22:38:48;;;;;;;27.25;19.75;;;;;;;;;;10300191;28;20075;-62
2022/04/07 22:43:46;;;;;;;21.20;18.98;;;;;;;;;;10284628;28;20447;-63
2022/04/07 22:48:45;;;;;;;20.65;18.45;;;;;;;;;;10282479;28;20056;-62
2022/04/07 22:53:43;;;;;;;20.67;18.33;;;;;;;;;;10284268;28;20073;-62
2022/04/07 22:58:42;;;;;;;22.48;17.42;;;;;;;;;;10283729;28;20041;-62
2022/04/07 23:03:40;;;;;;;24.48;18.58;;;;;;;;;;10283882;28;20057;-63
2022/04/07 23:08:39;;;;;;;23.92;19.27;;;;;;;;;;10281964;28;20072;-62
2022/04/07 23:13:37;;;;;;;19.63;17.60;;;;;;;;;;10283868;28;20175;-62
2022/04/07 23:18:37;;;;;;;20.23;18.08;;;;;;;;;;10283925;28;20418;-63
2022/04/07 23:23:35;;;;;;;20.70;16.83;;;;;;;;;;10283690;28;20541;-62
2022/04/07 23:28:33;;;;;;;20.73;17.52;;;;;;;;;;10282796;28;20087;-61
2022/04/07 23:33:32;;;;;;;21.77;18.35;;;;;;;;;;10282660;28;20553;-63
2022/04/07 23:38:32;;;;;;;21.77;17.42;;;;;;;;;;10283383;28;20076;-63
2022/04/07 23:43:31;;;;;;;18.25;16.33;;;;;;;;;;10282968;28;20533;-64
2022/04/07 23:48:29;;;;;;;20.48;17.08;;;;;;;;;;10281292;28;20084;-62
2022/04/07 23:53:29;;;;;;;19.33;17.25;;;;;;;;;;10283083;28;20069;-63
2022/04/07 23:58:28;;;;;;;20.42;18.25;;;;;;;;;;10282213;28;20072;-63
